Don's Testing Zone


Current Conditions
weather data
source:

National Weather Service
Partly Cloudy Little Rock, AR
Partly Cloudy, 90°F
Friday, August 18, 2017 5:53 PM CDT
Temperature: 90°F/32°C
Humidity: 56%
Barometer: 29.94in/1014.8mb Barometer Steady
Wind: Variable at 5mph/7kmh
View other cities:
Searcy | Little Rock | Hot Springs | Russellville | More...
Astronomical Conditions (Clear Sky Clock)
Searcy Clear Sky Clock
    

Radar Images

NWS
    Wx Underground

NWS METAR weather data

ADDS - METARS form results





Aviation Digital Data Service (ADDS) Output produced by METARs form (2335 UTC 18 August 2017) found at http://www.aviationweather.gov/adds/metars/ 

KLIT 182253Z VRB04KT 10SM FEW050 FEW150 SCT250 32/22 A2994 RMK AO2 SLP138T03220222

KLIT 182153Z VRB04KT 10SM FEW045 FEW150 SCT250 33/22 A2995 RMK AO2 SLP142T03280217

KLIT 182053Z 17003KT 10SM FEW045 FEW150 SCT250 33/22 A2996 RMK AO2 SLP144T03280222 56017

KLIT 181953Z 23005KT 10SM SCT040 BKN160 32/20 A2997 RMK AO2 SLP148 T03220200

KLIT 181853Z VRB03KT 10SM SCT035 BKN200 32/22 A2999 RMK AO2 SLP154 T03170217

KLIT 181753Z 22006KT 10SM SCT035 BKN200 32/23 A3001 RMK AO2 SLP162 T0317022810317 20217 58008

KLIT 181653Z 00000KT 10SM SCT035 BKN200 31/23 A3003 RMK AO2 SLP167 T03060228

KLIT 181553Z 00000KT 10SM SCT025 BKN200 29/23 A3004 RMK AO2 SLP171 T02940233

KLIT 181453Z 00000KT 10SM FEW040 FEW180 28/24 A3004 RMK AO2 SLP170 T0283024450009

KLIT 181353Z 25003KT 10SM FEW250 26/24 A3004 RMK AO2 SLP172 T02560239

KLIT 181253Z 25005KT 10SM FEW250 23/23 A3003 RMK AO2 SLP169 T02330233

KLIT 181153Z 22004KT 10SM FEW015 FEW250 22/22 A3001 RMK AO2 SLP161 T0217021710233 20217 53007

KLIT 181053Z 00000KT 10SM FEW250 22/22 A3000 RMK AO2 SLP157 T02220222

KLIT 180953Z 21004KT 10SM SCT250 22/22 A2999 RMK AO2 SLP155 T02170217

KLIT 180853Z 25004KT 10SM BKN250 23/23 A2999 RMK AO2 SLP154 T02280228 55001

KLIT 180753Z 25005KT 10SM SCT250 23/23 A2999 RMK AO2 SLP153 T02280228

KLIT 180653Z 25004KT 10SM SCT250 23/23 A2998 RMK AO2 SLP152 T02280228

KLIT 180553Z 23003KT 10SM SCT250 23/23 A2999 RMK AO2 SLP155 T02330233 1028920233 403170233 50002

KLIT 180453Z 24005KT 10SM FEW250 24/24 A2999 RMK AO2 SLP156 T02390239

KLIT 180353Z 22004KT 10SM CLR 24/23 A3000 RMK AO2 SLP157 T02390233

KLIT 180253Z 25005KT 10SM FEW250 25/23 A2999 RMK AO2 SLP153 T02500233 53013

KLIT 180153Z 24003KT 10SM SCT250 26/23 A2997 RMK AO2 SLP146 T02560233

KLIT 180053Z 28006KT 10SM FEW040 FEW150 BKN250 28/22 A2996 RMK AO2 SLP143T02780222

KLIT 172353Z 31011KT 10SM FEW040 SCT150 BKN250 29/23 A2995 RMK AO2 SLP140T02890228 10317 20272 53000